createdAt,value
2019-02-22T00:00:15.794Z,1018.97
2019-02-22T00:01:15.850Z,1018.93
2019-02-22T00:02:15.849Z,1019.00
2019-02-22T00:03:15.859Z,1019.01
2019-02-22T00:04:15.870Z,1019.03
2019-02-22T00:05:15.856Z,1019.09
2019-02-22T00:06:15.869Z,1019.14
2019-02-22T00:07:15.881Z,1019.14
2019-02-22T00:08:15.897Z,1019.12
2019-02-22T00:09:15.911Z,1019.12
2019-02-22T00:10:15.928Z,1019.13
2019-02-22T00:11:15.947Z,1019.15
2019-02-22T00:12:15.962Z,1019.22
2019-02-22T00:13:15.976Z,1019.23
2019-02-22T00:14:15.991Z,1019.23
2019-02-22T00:15:16.031Z,1019.23
2019-02-22T00:16:16.023Z,1019.28
2019-02-22T00:17:16.038Z,1019.29
2019-02-22T00:18:16.054Z,1019.29
2019-02-22T00:19:16.074Z,1019.27
2019-02-22T00:20:16.086Z,1019.27
2019-02-22T00:21:16.103Z,1019.35
2019-02-22T00:22:16.115Z,1019.31
2019-02-22T00:23:16.131Z,1019.35
2019-02-22T00:24:16.153Z,1019.42
2019-02-22T00:25:16.164Z,1019.46
2019-02-22T00:26:16.181Z,1019.45
2019-02-22T00:27:16.196Z,1019.45
2019-02-22T00:28:16.211Z,1019.54
2019-02-22T00:29:16.227Z,1019.49
2019-02-22T00:30:16.242Z,1019.50
2019-02-22T00:31:16.257Z,1019.53
2019-02-22T00:32:16.272Z,1019.50
2019-02-22T00:33:16.289Z,1019.56
2019-02-22T00:34:16.394Z,1019.58
2019-02-22T00:35:16.323Z,1019.53
2019-02-22T00:36:16.377Z,1019.62
2019-02-22T00:37:16.371Z,1019.60
2019-02-22T00:38:16.372Z,1019.63
2019-02-22T00:39:16.384Z,1019.64
2019-02-22T00:40:16.397Z,1019.63
2019-02-22T00:41:16.416Z,1019.65
2019-02-22T00:42:16.430Z,1019.63
2019-02-22T00:43:16.451Z,1019.66
2019-02-22T00:44:16.464Z,1019.73
2019-02-22T00:45:16.476Z,1019.66
2019-02-22T00:46:16.493Z,1019.80
2019-02-22T00:47:16.509Z,1019.78
2019-02-22T00:48:16.526Z,1019.74
2019-02-22T00:49:16.546Z,1019.74
2019-02-22T00:50:16.560Z,1019.75
2019-02-22T00:51:16.574Z,1019.76
2019-02-22T00:52:16.586Z,1019.76
2019-02-22T00:53:16.603Z,1019.79
2019-02-22T00:54:16.617Z,1019.76
2019-02-22T00:55:16.637Z,1019.84
2019-02-22T00:56:16.655Z,1019.75
2019-02-22T00:57:16.665Z,1019.82
2019-02-22T00:58:16.681Z,1019.82
2019-02-22T00:59:16.696Z,1019.85
2019-02-22T01:00:16.710Z,1019.85
2019-02-22T01:01:16.725Z,1019.84
2019-02-22T01:02:16.743Z,1019.87
2019-02-22T01:03:16.760Z,1019.90
2019-02-22T01:04:16.808Z,1019.95
2019-02-22T01:05:16.787Z,1019.95
2019-02-22T01:06:16.803Z,1019.91
2019-02-22T01:07:16.823Z,1019.97
2019-02-22T01:08:16.838Z,1019.97
2019-02-22T01:09:16.853Z,1020.01
2019-02-22T01:10:16.869Z,1019.98
2019-02-22T01:11:16.886Z,1019.99
2019-02-22T01:12:16.898Z,1020.07
2019-02-22T01:13:16.910Z,1020.09
2019-02-22T01:14:16.930Z,1020.07
2019-02-22T01:15:16.945Z,1020.08
2019-02-22T01:16:16.963Z,1020.09
2019-02-22T01:17:16.984Z,1020.18
2019-02-22T01:18:16.994Z,1020.17
2019-02-22T01:19:17.008Z,1020.25
2019-02-22T01:20:17.023Z,1020.19
2019-02-22T01:21:17.038Z,1020.24
2019-02-22T01:22:17.055Z,1020.28
2019-02-22T01:23:17.071Z,1020.30
2019-02-22T01:24:17.086Z,1020.20
2019-02-22T01:25:17.102Z,1020.24
2019-02-22T01:26:17.117Z,1020.29
2019-02-22T01:27:17.130Z,1020.38
2019-02-22T01:28:17.145Z,1020.32
2019-02-22T01:29:17.165Z,1020.35
2019-02-22T01:30:17.189Z,1020.35
2019-02-22T01:31:17.192Z,1020.41
2019-02-22T01:32:17.226Z,1020.41
2019-02-22T01:33:17.222Z,1020.42
2019-02-22T01:34:17.248Z,1020.48
2019-02-22T01:35:17.256Z,1020.46
2019-02-22T01:36:17.271Z,1020.52
2019-02-22T01:37:17.282Z,1020.55
2019-02-22T01:38:17.303Z,1020.57
2019-02-22T01:39:17.320Z,1020.60
2019-02-22T01:40:17.329Z,1020.62
2019-02-22T01:41:17.344Z,1020.69
2019-02-22T01:42:17.360Z,1020.64
2019-02-22T01:43:17.377Z,1020.64
2019-02-22T01:44:17.400Z,1020.70
2019-02-22T01:45:17.408Z,1020.66
2019-02-22T01:46:17.423Z,1020.69
2019-02-22T01:47:17.438Z,1020.68
2019-02-22T01:48:17.451Z,1020.66
2019-02-22T01:49:17.465Z,1020.66
2019-02-22T01:50:17.485Z,1020.70
2019-02-22T01:51:17.495Z,1020.70
2019-02-22T01:52:17.512Z,1020.70
2019-02-22T01:53:17.531Z,1020.74
2019-02-22T01:54:17.542Z,1020.74
2019-02-22T01:55:17.569Z,1020.73
2019-02-22T01:56:17.657Z,1020.72
2019-02-22T01:57:17.652Z,1020.79
2019-02-22T01:58:17.665Z,1020.83
2019-02-22T01:59:17.648Z,1020.80
2019-02-22T02:00:17.932Z,1020.88
2019-02-22T02:01:17.706Z,1020.88
2019-02-22T02:02:17.732Z,1020.85
2019-02-22T02:03:17.709Z,1020.90
2019-02-22T02:04:17.784Z,1020.97
2019-02-22T02:05:17.713Z,1020.90
2019-02-22T02:06:17.727Z,1020.95
2019-02-22T02:07:17.743Z,1020.97
2019-02-22T02:08:17.758Z,1021.01
2019-02-22T02:09:17.772Z,1021.01
2019-02-22T02:10:17.791Z,1021.00
2019-02-22T02:11:17.807Z,1021.02
2019-02-22T02:12:17.818Z,1021.08
2019-02-22T02:13:17.831Z,1021.03
2019-02-22T02:14:17.847Z,1021.08
2019-02-22T02:15:17.864Z,1021.11
2019-02-22T02:16:17.880Z,1021.16
2019-02-22T02:17:17.985Z,1021.13
2019-02-22T02:18:17.912Z,1021.17
2019-02-22T02:19:17.928Z,1021.15
2019-02-22T02:20:17.941Z,1021.16
2019-02-22T02:21:17.957Z,1021.18
2019-02-22T02:22:17.969Z,1021.20
2019-02-22T02:23:17.987Z,1021.14
2019-02-22T02:24:18.000Z,1021.22
2019-02-22T02:25:18.015Z,1021.19
2019-02-22T02:26:18.031Z,1021.24
2019-02-22T02:27:18.048Z,1021.19
2019-02-22T02:28:18.068Z,1021.20
2019-02-22T02:29:18.078Z,1021.27
2019-02-22T02:30:18.094Z,1021.29
2019-02-22T02:31:18.111Z,1021.22
2019-02-22T02:32:18.127Z,1021.27
2019-02-22T02:33:18.137Z,1021.28
2019-02-22T02:34:18.156Z,1021.28
2019-02-22T02:35:18.165Z,1021.35
2019-02-22T02:36:18.184Z,1021.39
2019-02-22T02:37:18.198Z,1021.37
2019-02-22T02:38:18.215Z,1021.41
2019-02-22T02:39:18.230Z,1021.43
2019-02-22T02:40:18.246Z,1021.44
2019-02-22T02:41:18.263Z,1021.43
2019-02-22T02:42:18.275Z,1021.50
2019-02-22T02:43:18.291Z,1021.51
2019-02-22T02:44:18.303Z,1021.50
2019-02-22T02:45:18.319Z,1021.49
2019-02-22T02:46:18.335Z,1021.55
2019-02-22T02:47:18.351Z,1021.60
2019-02-22T02:48:18.376Z,1021.59
2019-02-22T02:49:18.408Z,1021.58
2019-02-22T02:50:18.401Z,1021.62
2019-02-22T02:51:18.412Z,1021.58
2019-02-22T02:52:18.426Z,1021.67
2019-02-22T02:53:18.452Z,1021.72
2019-02-22T02:54:18.455Z,1021.72
2019-02-22T02:55:18.471Z,1021.72
2019-02-22T02:56:18.486Z,1021.69
2019-02-22T02:57:18.504Z,1021.75
2019-02-22T02:58:18.517Z,1021.79
2019-02-22T02:59:18.532Z,1021.77
2019-02-22T03:00:18.547Z,1021.84
2019-02-22T03:01:18.565Z,1021.83
2019-02-22T03:02:18.582Z,1021.88
2019-02-22T03:03:18.601Z,1021.89
2019-02-22T03:04:18.610Z,1021.92
2019-02-22T03:05:18.625Z,1021.88
2019-02-22T03:06:18.642Z,1021.91
2019-02-22T03:07:18.653Z,1021.91
2019-02-22T03:08:18.671Z,1021.90
2019-02-22T03:09:18.688Z,1021.88
2019-02-22T03:10:18.704Z,1021.93
2019-02-22T03:11:21.028Z,1021.96
2019-02-22T03:12:18.735Z,1021.91
2019-02-22T03:13:18.748Z,1021.99
2019-02-22T03:14:18.763Z,1022.01
2019-02-22T03:15:18.776Z,1021.98
2019-02-22T03:16:18.792Z,1021.95
2019-02-22T03:17:18.808Z,1022.06
2019-02-22T03:18:18.822Z,1022.03
2019-02-22T03:19:18.839Z,1022.02
2019-02-22T03:20:18.854Z,1022.06
2019-02-22T03:21:18.868Z,1022.05
2019-02-22T03:22:18.884Z,1022.03
2019-02-22T03:23:18.899Z,1022.09
2019-02-22T03:24:18.913Z,1022.09
2019-02-22T03:25:18.929Z,1022.13
2019-02-22T03:26:18.956Z,1022.13
2019-02-22T03:27:18.960Z,1022.12
2019-02-22T03:28:18.977Z,1022.15
2019-02-22T03:29:18.992Z,1022.17
2019-02-22T03:30:19.008Z,1022.15
2019-02-22T03:31:19.021Z,1022.18
2019-02-22T03:32:19.034Z,1022.21
2019-02-22T03:33:19.077Z,1022.21
2019-02-22T03:34:19.066Z,1022.17
2019-02-22T03:35:19.083Z,1022.20
2019-02-22T03:36:19.098Z,1022.24
2019-02-22T03:37:19.109Z,1022.22
2019-02-22T03:38:19.131Z,1022.26
2019-02-22T03:39:19.157Z,1022.24
2019-02-22T03:40:19.157Z,1022.32
2019-02-22T03:41:19.169Z,1022.33
2019-02-22T03:42:19.183Z,1022.31
2019-02-22T03:43:19.197Z,1022.32
2019-02-22T03:44:19.215Z,1022.29
2019-02-22T03:45:19.229Z,1022.35
2019-02-22T03:46:19.249Z,1022.35
2019-02-22T03:47:19.260Z,1022.37
2019-02-22T03:48:19.280Z,1022.42
2019-02-22T03:49:19.289Z,1022.42
2019-02-22T03:50:19.309Z,1022.52
2019-02-22T03:51:19.320Z,1022.52
2019-02-22T03:52:19.333Z,1022.52
2019-02-22T03:53:19.362Z,1022.53
2019-02-22T03:54:19.365Z,1022.59
2019-02-22T03:55:19.393Z,1022.60
2019-02-22T03:56:19.397Z,1022.62
2019-02-22T03:57:19.416Z,1022.62
2019-02-22T03:58:19.495Z,1022.69
2019-02-22T03:59:19.498Z,1022.67
2019-02-22T04:00:19.508Z,1022.72
2019-02-22T04:01:19.517Z,1022.75
2019-02-22T04:02:19.563Z,1022.73
2019-02-22T04:03:19.555Z,1022.76
2019-02-22T04:04:19.560Z,1022.81
2019-02-22T04:05:19.638Z,1022.81
2019-02-22T04:06:19.550Z,1022.83
2019-02-22T04:07:19.559Z,1022.87
2019-02-22T04:08:19.574Z,1022.86
2019-02-22T04:09:19.587Z,1022.91
2019-02-22T04:10:19.609Z,1022.97
2019-02-22T04:11:19.627Z,1022.94
2019-02-22T04:12:19.631Z,1022.98
2019-02-22T04:13:19.657Z,1023.05
2019-02-22T04:14:19.662Z,1023.02
2019-02-22T04:15:19.677Z,1023.08
2019-02-22T04:16:19.691Z,1023.08
2019-02-22T04:17:19.703Z,1023.04
2019-02-22T04:18:19.724Z,1023.11
2019-02-22T04:19:19.734Z,1023.11
2019-02-22T04:20:19.752Z,1023.16
2019-02-22T04:21:19.765Z,1023.14
2019-02-22T04:22:19.778Z,1023.06
2019-02-22T04:23:19.795Z,1023.21
2019-02-22T04:24:19.805Z,1023.26
2019-02-22T04:25:19.821Z,1023.29
2019-02-22T04:26:19.837Z,1023.29
2019-02-22T04:27:19.849Z,1023.39
2019-02-22T04:28:19.867Z,1023.40
2019-02-22T04:29:19.881Z,1023.44
2019-02-22T04:30:19.895Z,1023.45
2019-02-22T04:31:19.911Z,1023.55
2019-02-22T04:32:19.921Z,1023.46
2019-02-22T04:33:19.939Z,1023.53
2019-02-22T04:34:19.952Z,1023.55
2019-02-22T04:35:19.966Z,1023.60
2019-02-22T04:36:19.982Z,1023.60
2019-02-22T04:37:19.997Z,1023.66
2019-02-22T04:38:20.016Z,1023.77
2019-02-22T04:39:20.027Z,1023.72
2019-02-22T04:40:20.049Z,1023.81
2019-02-22T04:41:20.052Z,1023.75
2019-02-22T04:42:20.064Z,1023.74
2019-02-22T04:43:20.082Z,1023.80
2019-02-22T04:44:20.097Z,1023.83
2019-02-22T04:45:20.114Z,1023.84
2019-02-22T04:46:20.128Z,1023.89
2019-02-22T04:47:20.138Z,1023.91
2019-02-22T04:48:20.155Z,1023.92
2019-02-22T04:49:20.167Z,1023.94
2019-02-22T04:50:20.188Z,1023.97
2019-02-22T04:51:20.195Z,1023.94
2019-02-22T04:52:20.211Z,1023.99
2019-02-22T04:53:20.222Z,1024.01
2019-02-22T04:54:20.237Z,1024.09
2019-02-22T04:55:20.249Z,1024.14
2019-02-22T04:56:20.269Z,1024.21
2019-02-22T04:57:20.280Z,1024.16
2019-02-22T04:58:20.295Z,1024.20
2019-02-22T04:59:20.308Z,1024.27
2019-02-22T05:00:20.319Z,1024.29
2019-02-22T05:01:20.336Z,1024.26
2019-02-22T05:02:20.350Z,1024.32
2019-02-22T05:03:20.362Z,1024.39
2019-02-22T05:04:20.376Z,1024.47
2019-02-22T05:05:20.391Z,1024.50
2019-02-22T05:06:20.403Z,1024.55
2019-02-22T05:07:20.418Z,1024.56
2019-02-22T05:08:20.437Z,1024.65
2019-02-22T05:09:20.450Z,1024.59
2019-02-22T05:10:20.462Z,1024.64
2019-02-22T05:11:20.476Z,1024.69
2019-02-22T05:12:20.487Z,1024.77
2019-02-22T05:13:20.500Z,1024.76
2019-02-22T05:14:20.515Z,1024.79
2019-02-22T05:15:20.527Z,1024.87
2019-02-22T05:16:20.548Z,1024.84
2019-02-22T05:17:20.557Z,1024.85
2019-02-22T05:18:20.572Z,1024.94
2019-02-22T05:19:20.586Z,1025.03
2019-02-22T05:20:20.606Z,1025.06
2019-02-22T05:21:20.611Z,1025.10
2019-02-22T05:22:20.627Z,1025.11
2019-02-22T05:23:20.641Z,1025.13
2019-02-22T05:24:20.655Z,1025.12
2019-02-22T05:25:20.664Z,1025.21
2019-02-22T05:26:20.677Z,1025.25
2019-02-22T05:27:20.693Z,1025.25
2019-02-22T05:28:20.709Z,1025.45
2019-02-22T05:29:20.724Z,1025.41
2019-02-22T05:30:20.734Z,1025.43
2019-02-22T05:31:20.747Z,1025.42
2019-02-22T05:32:20.764Z,1025.46
2019-02-22T05:33:20.771Z,1025.56
2019-02-22T05:34:20.785Z,1025.58
2019-02-22T05:35:20.798Z,1025.58
2019-02-22T05:36:20.836Z,1025.59
2019-02-22T05:37:20.832Z,1025.61
2019-02-22T05:38:20.845Z,1025.67
2019-02-22T05:39:20.854Z,1025.70
2019-02-22T05:40:20.872Z,1025.66
2019-02-22T05:41:20.880Z,1025.69
2019-02-22T05:42:23.249Z,1025.74
2019-02-22T05:43:20.904Z,1025.83
2019-02-22T05:44:20.920Z,1025.79
2019-02-22T05:45:20.930Z,1025.80
2019-02-22T05:46:20.945Z,1025.80
2019-02-22T05:47:20.963Z,1025.88
2019-02-22T05:48:20.971Z,1025.87
2019-02-22T05:49:22.401Z,1025.89
2019-02-22T05:50:20.998Z,1025.93
2019-02-22T05:51:21.008Z,1025.94
2019-02-22T05:52:21.020Z,1026.01
2019-02-22T05:53:21.033Z,1025.93
2019-02-22T05:54:21.046Z,1025.97
2019-02-22T05:55:21.059Z,1026.07
2019-02-22T05:56:21.089Z,1026.10
2019-02-22T05:57:21.086Z,1026.07
2019-02-22T05:58:21.098Z,1026.05
2019-02-22T05:59:21.112Z,1026.06
2019-02-22T06:00:21.122Z,1026.11
2019-02-22T06:01:21.142Z,1026.18
2019-02-22T06:02:21.148Z,1026.19
2019-02-22T06:03:21.159Z,1026.28
2019-02-22T06:04:21.175Z,1026.33
2019-02-22T06:05:21.187Z,1026.37
2019-02-22T06:06:21.200Z,1026.38
2019-02-22T06:07:21.214Z,1026.37
2019-02-22T06:08:21.226Z,1026.46
2019-02-22T06:09:21.239Z,1026.52
2019-02-22T06:10:21.275Z,1026.54
2019-02-22T06:11:21.336Z,1026.57
2019-02-22T06:12:21.340Z,1026.62
2019-02-22T06:13:21.329Z,1026.72
2019-02-22T06:14:21.339Z,1026.73
2019-02-22T06:15:21.391Z,1026.77
2019-02-22T06:16:21.401Z,1026.84
2019-02-22T06:17:21.386Z,1026.89
2019-02-22T06:18:22.996Z,1026.86
2019-02-22T06:19:21.397Z,1026.93
2019-02-22T06:20:21.388Z,1026.94
2019-02-22T06:21:21.394Z,1027.04
2019-02-22T06:22:28.955Z,1027.07
2019-02-22T06:23:21.417Z,1027.04
2019-02-22T06:24:21.424Z,1027.07
2019-02-22T06:25:21.442Z,1027.03
2019-02-22T06:26:21.452Z,1027.00
2019-02-22T06:27:21.466Z,1027.06
2019-02-22T06:28:21.479Z,1027.10
2019-02-22T06:29:21.490Z,1027.15
2019-02-22T06:30:21.502Z,1027.14
2019-02-22T06:31:21.517Z,1027.20
2019-02-22T06:32:21.525Z,1027.16
2019-02-22T06:33:21.542Z,1027.25
2019-02-22T06:34:21.550Z,1027.25
2019-02-22T06:35:21.564Z,1027.29
2019-02-22T06:36:21.578Z,1027.27
2019-02-22T06:37:21.596Z,1027.30
2019-02-22T06:38:21.603Z,1027.36
2019-02-22T06:39:21.617Z,1027.43
2019-02-22T06:40:21.627Z,1027.40
2019-02-22T06:41:21.640Z,1027.41
2019-02-22T06:42:21.652Z,1027.52
2019-02-22T06:43:21.670Z,1027.57
2019-02-22T06:44:21.676Z,1027.62
2019-02-22T06:45:21.684Z,1027.59
2019-02-22T06:46:21.697Z,1027.67
2019-02-22T06:47:22.875Z,1027.71
2019-02-22T06:48:21.726Z,1027.73
2019-02-22T06:49:21.740Z,1027.81
2019-02-22T06:50:33.114Z,1027.82
2019-02-22T06:51:21.768Z,1027.87
2019-02-22T06:52:21.776Z,1027.87
2019-02-22T06:53:21.786Z,1027.88
2019-02-22T06:54:21.798Z,1027.93
2019-02-22T06:55:21.810Z,1027.99
2019-02-22T06:56:24.221Z,1028.00
2019-02-22T06:57:21.838Z,1028.05
2019-02-22T06:58:21.850Z,1028.09
2019-02-22T06:59:21.868Z,1028.09
2019-02-22T07:00:21.876Z,1028.10
2019-02-22T07:01:21.889Z,1028.15
2019-02-22T07:02:21.900Z,1028.20
2019-02-22T07:03:21.921Z,1028.23
2019-02-22T07:04:21.924Z,1028.21
2019-02-22T07:05:21.933Z,1028.26
2019-02-22T07:06:21.947Z,1028.25
2019-02-22T07:07:21.964Z,1028.30
2019-02-22T07:08:21.976Z,1028.29
2019-02-22T07:09:21.987Z,1028.30
2019-02-22T07:10:22.000Z,1028.32
2019-02-22T07:11:22.012Z,1028.31
2019-02-22T07:12:22.025Z,1028.39
2019-02-22T07:13:24.307Z,1028.36
2019-02-22T07:14:22.048Z,1028.44
2019-02-22T07:15:22.060Z,1028.33
2019-02-22T07:16:22.072Z,1028.47
2019-02-22T07:17:22.087Z,1028.52
2019-02-22T07:18:22.095Z,1028.55
2019-02-22T07:19:22.108Z,1028.67
2019-02-22T07:20:22.122Z,1028.62
2019-02-22T07:21:22.133Z,1028.70
2019-02-22T07:22:22.145Z,1028.68
2019-02-22T07:23:22.159Z,1028.68
2019-02-22T07:24:22.169Z,1028.77
2019-02-22T07:25:22.179Z,1028.85
2019-02-22T07:26:22.194Z,1028.84
2019-02-22T07:27:22.206Z,1028.90
2019-02-22T07:28:22.243Z,1028.98
2019-02-22T07:29:22.385Z,1028.98
2019-02-22T07:30:22.253Z,1028.99
2019-02-22T07:31:22.257Z,1029.03
2019-02-22T07:32:22.272Z,1029.06
2019-02-22T07:33:22.282Z,1029.15
2019-02-22T07:34:22.294Z,1029.21
2019-02-22T07:35:22.308Z,1029.20
2019-02-22T07:36:22.321Z,1029.24
2019-02-22T07:37:22.330Z,1029.32
2019-02-22T07:38:22.343Z,1029.28
2019-02-22T07:39:27.803Z,1029.28
2019-02-22T07:40:22.373Z,1029.34
2019-02-22T07:41:22.382Z,1029.44
2019-02-22T07:42:22.392Z,1029.41
2019-02-22T07:43:22.406Z,1029.53
2019-02-22T07:44:22.416Z,1029.52
2019-02-22T07:45:22.427Z,1029.56
2019-02-22T07:46:22.443Z,1029.59
2019-02-22T07:47:22.449Z,1029.67
2019-02-22T07:48:22.468Z,1029.73
2019-02-22T07:49:22.476Z,1029.68
2019-02-22T07:50:22.490Z,1029.68
2019-02-22T07:51:22.499Z,1029.65
2019-02-22T07:52:22.509Z,1029.68
2019-02-22T07:53:22.525Z,1029.80
2019-02-22T07:54:22.540Z,1029.83
2019-02-22T07:55:22.545Z,1029.80
2019-02-22T07:56:22.647Z,1029.85
2019-02-22T07:57:22.571Z,1029.92
2019-02-22T07:58:22.585Z,1029.97
2019-02-22T07:59:22.592Z,1029.96
2019-02-22T08:00:22.607Z,1030.00
2019-02-22T08:01:22.622Z,1030.09
2019-02-22T08:02:22.632Z,1030.14
2019-02-22T08:03:22.643Z,1030.11
2019-02-22T08:04:22.654Z,1030.16
2019-02-22T08:05:22.669Z,1030.22
2019-02-22T08:06:22.676Z,1030.28
2019-02-22T08:07:22.689Z,1030.34
2019-02-22T08:08:22.703Z,1030.37
2019-02-22T08:09:22.718Z,1030.40
2019-02-22T08:10:22.767Z,1030.43
2019-02-22T08:11:22.737Z,1030.45
2019-02-22T08:12:22.749Z,1030.45
2019-02-22T08:13:22.763Z,1030.47
2019-02-22T08:14:22.771Z,1030.51
2019-02-22T08:15:22.786Z,1030.46
2019-02-22T08:16:22.796Z,1030.57
2019-02-22T08:17:22.810Z,1030.55
2019-02-22T08:18:22.822Z,1030.57
2019-02-22T08:19:22.831Z,1030.52
2019-02-22T08:20:22.847Z,1030.61
2019-02-22T08:21:22.859Z,1030.53
2019-02-22T08:22:22.870Z,1030.62
2019-02-22T08:23:22.885Z,1030.61
2019-02-22T08:24:25.724Z,1030.67
2019-02-22T08:25:22.906Z,1030.67
2019-02-22T08:26:22.916Z,1030.75
2019-02-22T08:27:22.931Z,1030.79
2019-02-22T08:28:22.942Z,1030.80
2019-02-22T08:29:22.954Z,1030.87
2019-02-22T08:30:22.965Z,1030.92
2019-02-22T08:31:22.980Z,1030.85
2019-02-22T08:32:22.991Z,1030.90
2019-02-22T08:33:23.003Z,1031.02
2019-02-22T08:34:23.035Z,1031.00
2019-02-22T08:35:23.026Z,1030.98
2019-02-22T08:36:23.037Z,1031.06
2019-02-22T08:37:23.048Z,1031.07
2019-02-22T08:38:23.151Z,1031.11
2019-02-22T08:39:23.144Z,1031.06
2019-02-22T08:40:23.152Z,1031.12
2019-02-22T08:41:23.158Z,1031.13
2019-02-22T08:42:23.163Z,1031.16
2019-02-22T08:43:30.999Z,1031.15
2019-02-22T08:44:23.217Z,1031.12
2019-02-22T08:45:23.219Z,1031.16
2019-02-22T08:46:23.223Z,1031.22
2019-02-22T08:47:23.229Z,1031.23
2019-02-22T08:48:23.269Z,1031.26
2019-02-22T08:49:23.205Z,1031.26
2019-02-22T08:50:23.208Z,1031.32
2019-02-22T08:51:23.219Z,1031.41
2019-02-22T08:52:23.236Z,1031.45
2019-02-22T08:53:23.246Z,1031.38
2019-02-22T08:54:23.258Z,1031.37
2019-02-22T08:55:23.275Z,1031.36
2019-02-22T08:56:23.281Z,1031.43
2019-02-22T08:57:23.292Z,1031.46
2019-02-22T08:58:23.306Z,1031.48
2019-02-22T08:59:23.318Z,1031.49
2019-02-22T09:00:23.332Z,1031.53
2019-02-22T09:01:23.343Z,1031.55
2019-02-22T09:02:23.357Z,1031.66
2019-02-22T09:03:23.370Z,1031.63
2019-02-22T09:04:23.382Z,1031.73
2019-02-22T09:05:23.395Z,1031.74
2019-02-22T09:06:23.408Z,1031.79
2019-02-22T09:07:23.422Z,1031.79
2019-02-22T09:08:23.429Z,1031.82
2019-02-22T09:09:23.443Z,1031.85
2019-02-22T09:10:23.457Z,1031.88
2019-02-22T09:11:23.469Z,1031.85
2019-02-22T09:12:23.483Z,1031.84
2019-02-22T09:13:23.496Z,1031.92
2019-02-22T09:14:23.507Z,1031.94
2019-02-22T09:15:23.521Z,1031.97
2019-02-22T09:16:23.532Z,1031.99
2019-02-22T09:17:23.547Z,1031.98
2019-02-22T09:18:23.557Z,1032.06
2019-02-22T09:19:23.570Z,1032.06
2019-02-22T09:20:23.583Z,1032.05
2019-02-22T09:21:23.600Z,1032.02
2019-02-22T09:22:23.608Z,1031.95
2019-02-22T09:23:23.619Z,1032.02
2019-02-22T09:24:23.635Z,1031.97
2019-02-22T09:25:23.647Z,1031.98
2019-02-22T09:26:23.662Z,1031.99
2019-02-22T09:27:23.675Z,1031.92
2019-02-22T09:28:23.685Z,1032.00
2019-02-22T09:29:23.702Z,1031.99
2019-02-22T09:30:23.708Z,1031.99
2019-02-22T09:31:23.724Z,1031.95
2019-02-22T09:32:23.738Z,1032.02
2019-02-22T09:33:23.749Z,1032.03
2019-02-22T09:34:23.763Z,1032.03
2019-02-22T09:35:23.775Z,1032.05
2019-02-22T09:36:23.790Z,1032.07
2019-02-22T09:37:23.803Z,1032.08
2019-02-22T09:38:23.815Z,1032.14
2019-02-22T09:39:23.826Z,1032.06
2019-02-22T09:40:23.838Z,1032.07
2019-02-22T09:41:23.849Z,1032.11
2019-02-22T09:42:23.860Z,1032.12
2019-02-22T09:43:23.878Z,1032.18
2019-02-22T09:44:23.887Z,1032.21
2019-02-22T09:45:24.605Z,1032.22
2019-02-22T09:46:23.912Z,1032.22
2019-02-22T09:47:23.928Z,1032.25
2019-02-22T09:48:23.935Z,1032.24
2019-02-22T09:49:23.946Z,1032.28
2019-02-22T09:50:23.960Z,1032.28
2019-02-22T09:51:23.974Z,1032.30
2019-02-22T09:52:23.986Z,1032.32
2019-02-22T09:53:23.998Z,1032.35
2019-02-22T09:54:24.011Z,1032.36
2019-02-22T09:55:24.024Z,1032.39
2019-02-22T09:56:24.033Z,1032.41
2019-02-22T09:57:24.044Z,1032.40
2019-02-22T09:58:24.055Z,1032.39
2019-02-22T09:59:24.070Z,1032.50
2019-02-22T10:00:24.083Z,1032.47
2019-02-22T10:01:24.094Z,1032.51
2019-02-22T10:02:24.107Z,1032.46
2019-02-22T10:03:24.122Z,1032.47
2019-02-22T10:04:24.130Z,1032.48
2019-02-22T10:05:24.140Z,1032.48
2019-02-22T10:06:24.152Z,1032.56
2019-02-22T10:07:24.165Z,1032.47
2019-02-22T10:08:24.176Z,1032.46
2019-02-22T10:09:24.190Z,1032.50
2019-02-22T10:10:24.202Z,1032.49
2019-02-22T10:11:24.210Z,1032.49
2019-02-22T10:12:24.226Z,1032.60
2019-02-22T10:13:24.239Z,1032.55
2019-02-22T10:14:24.249Z,1032.63
2019-02-22T10:15:24.262Z,1032.59
2019-02-22T10:16:24.272Z,1032.60
2019-02-22T10:17:24.282Z,1032.57
2019-02-22T10:18:24.295Z,1032.52
2019-02-22T10:19:24.308Z,1032.62
2019-02-22T10:20:24.320Z,1032.61
2019-02-22T10:21:24.331Z,1032.58
2019-02-22T10:22:24.345Z,1032.62
2019-02-22T10:23:24.356Z,1032.63
2019-02-22T10:24:24.368Z,1032.62
2019-02-22T10:25:24.382Z,1032.69
2019-02-22T10:26:24.400Z,1032.66
2019-02-22T10:27:24.402Z,1032.65
2019-02-22T10:28:24.410Z,1032.66
2019-02-22T10:29:24.423Z,1032.72
2019-02-22T10:30:24.435Z,1032.78
2019-02-22T10:31:24.449Z,1032.77
2019-02-22T10:32:24.463Z,1032.71
2019-02-22T10:33:24.472Z,1032.76
2019-02-22T10:34:24.487Z,1032.70
2019-02-22T10:35:24.508Z,1032.72
2019-02-22T10:36:24.507Z,1032.73
2019-02-22T10:37:24.519Z,1032.71
2019-02-22T10:38:24.529Z,1032.70
2019-02-22T10:39:24.544Z,1032.68
2019-02-22T10:40:24.556Z,1032.74
2019-02-22T10:41:24.566Z,1032.72
2019-02-22T10:42:24.579Z,1032.72
2019-02-22T10:43:24.596Z,1032.73
2019-02-22T10:44:24.605Z,1032.77
2019-02-22T10:45:24.617Z,1032.82
2019-02-22T10:46:24.627Z,1032.83
2019-02-22T10:47:24.640Z,1032.89
2019-02-22T10:48:24.649Z,1032.82
2019-02-22T10:49:24.660Z,1032.87
2019-02-22T10:50:24.672Z,1032.80
2019-02-22T10:51:24.689Z,1032.88
2019-02-22T10:52:24.700Z,1032.93
2019-02-22T10:53:24.709Z,1032.87
2019-02-22T10:54:24.724Z,1032.95
2019-02-22T10:55:24.735Z,1032.91
2019-02-22T10:56:24.747Z,1032.95
2019-02-22T10:57:24.757Z,1032.95
2019-02-22T10:58:24.766Z,1032.94
2019-02-22T10:59:24.781Z,1032.96
2019-02-22T11:00:24.813Z,1032.95
2019-02-22T11:01:24.802Z,1033.02
2019-02-22T11:02:24.814Z,1032.91
2019-02-22T11:03:24.833Z,1032.92
2019-02-22T11:04:24.852Z,1032.94
2019-02-22T11:05:24.852Z,1032.90
2019-02-22T11:06:24.865Z,1032.90
2019-02-22T11:07:24.882Z,1032.88
2019-02-22T11:08:24.969Z,1032.89
2019-02-22T11:09:24.970Z,1032.93
2019-02-22T11:10:24.967Z,1032.94
2019-02-22T11:11:24.967Z,1032.92
2019-02-22T11:12:24.970Z,1032.96
2019-02-22T11:13:25.023Z,1032.96
2019-02-22T11:14:29.228Z,1032.94
2019-02-22T11:15:25.023Z,1032.98
2019-02-22T11:16:25.022Z,1033.00
2019-02-22T11:17:25.026Z,1032.99
2019-02-22T11:18:25.026Z,1032.96
2019-02-22T11:19:25.026Z,1032.95
2019-02-22T11:20:25.031Z,1032.98
2019-02-22T11:21:25.042Z,1033.02
2019-02-22T11:22:25.055Z,1033.03
2019-02-22T11:23:25.067Z,1033.07
2019-02-22T11:24:25.083Z,1033.02
2019-02-22T11:25:25.093Z,1033.00
2019-02-22T11:26:25.103Z,1033.02
2019-02-22T11:27:25.118Z,1033.06
2019-02-22T11:28:25.129Z,1033.01
2019-02-22T11:29:25.140Z,1033.04
2019-02-22T11:30:25.153Z,1033.10
2019-02-22T11:31:25.167Z,1033.05
2019-02-22T11:32:25.179Z,1033.06
2019-02-22T11:33:25.191Z,1033.08
2019-02-22T11:34:25.202Z,1033.10
2019-02-22T11:35:25.212Z,1033.17
2019-02-22T11:36:25.226Z,1033.19
2019-02-22T11:37:25.242Z,1033.25
2019-02-22T11:38:25.251Z,1033.24
2019-02-22T11:39:25.262Z,1033.32
2019-02-22T11:40:25.274Z,1033.32
2019-02-22T11:41:25.287Z,1033.27
2019-02-22T11:42:25.299Z,1033.23
2019-02-22T11:43:25.314Z,1033.32
2019-02-22T11:44:25.320Z,1033.30
2019-02-22T11:45:25.333Z,1033.33
2019-02-22T11:46:25.346Z,1033.34
2019-02-22T11:47:25.362Z,1033.30
2019-02-22T11:48:25.461Z,1033.34
2019-02-22T11:49:25.385Z,1033.43
2019-02-22T11:50:25.399Z,1033.42
2019-02-22T11:51:25.408Z,1033.37
2019-02-22T11:52:25.420Z,1033.41
2019-02-22T11:53:25.432Z,1033.42
2019-02-22T11:54:25.444Z,1033.50
2019-02-22T11:55:25.457Z,1033.44
2019-02-22T11:56:25.471Z,1033.49
2019-02-22T11:57:25.483Z,1033.53
2019-02-22T11:58:25.498Z,1033.50
2019-02-22T11:59:25.508Z,1033.52
2019-02-22T12:00:25.517Z,1033.57
2019-02-22T12:01:25.528Z,1033.49
2019-02-22T12:02:25.540Z,1033.56
2019-02-22T12:03:25.557Z,1033.55
2019-02-22T12:04:25.569Z,1033.65
2019-02-22T12:05:25.581Z,1033.55